<?xml version="1.0" encoding="UTF-8" standalone="no" ?>
<gpx xmlns="http://www.topografix.com/GPX/1/1" xmlns:xsi="http://www.w3.org/2001/XMLSchema-instance" xsi:schemaLocation="http://www.topografix.com/GPX/1/1 http://www.topografix.com/GPX/1/1/gpx.xsd" version="1.1" creator="VisuGPX - https://www.visugpx.com">
  <metadata>
    <name>la ronde des 2 villages</name>
  </metadata>
  <trk>
    <name><![CDATA[la ronde des 2 villages]]></name>
    <trkseg>
      <trkpt lat="46.81342" lon="6.30104">
        <ele>864</ele>
        <time>2021-11-21T16:08:31+01:00</time>
      </trkpt>
      <trkpt lat="46.81366" lon="6.30143">
        <ele>864</ele>
        <time>2021-11-21T16:08:36+01:00</time>
      </trkpt>
      <trkpt lat="46.81319" lon="6.30263">
        <ele>859</ele>
        <time>2021-11-21T16:08:41+01:00</time>
      </trkpt>
      <trkpt lat="46.8136" lon="6.30314">
        <ele>861</ele>
        <time>2021-11-21T16:08:46+01:00</time>
      </trkpt>
      <trkpt lat="46.81398" lon="6.30349">
        <ele>867</ele>
        <time>2021-11-21T16:08:51+01:00</time>
      </trkpt>
      <trkpt lat="46.8146" lon="6.304">
        <ele>872</ele>
        <time>2021-11-21T16:08:56+01:00</time>
      </trkpt>
      <trkpt lat="46.81501" lon="6.30477">
        <ele>876</ele>
        <time>2021-11-21T16:09:01+01:00</time>
      </trkpt>
      <trkpt lat="46.8158" lon="6.30589">
        <ele>879</ele>
        <time>2021-11-21T16:09:06+01:00</time>
      </trkpt>
      <trkpt lat="46.81683" lon="6.30696">
        <ele>878</ele>
        <time>2021-11-21T16:09:11+01:00</time>
      </trkpt>
      <trkpt lat="46.81786" lon="6.30782">
        <ele>875</ele>
        <time>2021-11-21T16:09:16+01:00</time>
      </trkpt>
      <trkpt lat="46.81853" lon="6.30765">
        <ele>879</ele>
        <time>2021-11-21T16:09:21+01:00</time>
      </trkpt>
      <trkpt lat="46.81874" lon="6.30876">
        <ele>879</ele>
        <time>2021-11-21T16:09:26+01:00</time>
      </trkpt>
      <trkpt lat="46.81936" lon="6.31001">
        <ele>879</ele>
        <time>2021-11-21T16:09:31+01:00</time>
      </trkpt>
      <trkpt lat="46.81997" lon="6.31078">
        <ele>877</ele>
        <time>2021-11-21T16:09:36+01:00</time>
      </trkpt>
      <trkpt lat="46.82094" lon="6.3113">
        <ele>878</ele>
        <time>2021-11-21T16:09:41+01:00</time>
      </trkpt>
      <trkpt lat="46.82209" lon="6.31125">
        <ele>875</ele>
        <time>2021-11-21T16:09:46+01:00</time>
      </trkpt>
      <trkpt lat="46.82273" lon="6.31001">
        <ele>878</ele>
        <time>2021-11-21T16:09:51+01:00</time>
      </trkpt>
      <trkpt lat="46.82323" lon="6.30825">
        <ele>884</ele>
        <time>2021-11-21T16:09:56+01:00</time>
      </trkpt>
      <trkpt lat="46.82449" lon="6.30924">
        <ele>873</ele>
        <time>2021-11-21T16:10:01+01:00</time>
      </trkpt>
      <trkpt lat="46.82496" lon="6.30906">
        <ele>876</ele>
        <time>2021-11-21T16:10:06+01:00</time>
      </trkpt>
      <trkpt lat="46.82573" lon="6.30928">
        <ele>883</ele>
        <time>2021-11-21T16:10:11+01:00</time>
      </trkpt>
      <trkpt lat="46.8259" lon="6.30954">
        <ele>883</ele>
        <time>2021-11-21T16:10:16+01:00</time>
      </trkpt>
      <trkpt lat="46.82661" lon="6.30984">
        <ele>888</ele>
        <time>2021-11-21T16:10:21+01:00</time>
      </trkpt>
      <trkpt lat="46.82696" lon="6.30941">
        <ele>898</ele>
        <time>2021-11-21T16:10:26+01:00</time>
      </trkpt>
      <trkpt lat="46.82734" lon="6.30821">
        <ele>910</ele>
        <time>2021-11-21T16:10:31+01:00</time>
      </trkpt>
      <trkpt lat="46.82772" lon="6.30838">
        <ele>911</ele>
        <time>2021-11-21T16:10:36+01:00</time>
      </trkpt>
      <trkpt lat="46.82849" lon="6.30821">
        <ele>921</ele>
        <time>2021-11-21T16:10:41+01:00</time>
      </trkpt>
      <trkpt lat="46.82872" lon="6.30825">
        <ele>924</ele>
        <time>2021-11-21T16:10:46+01:00</time>
      </trkpt>
      <trkpt lat="46.82905" lon="6.30786">
        <ele>924</ele>
        <time>2021-11-21T16:10:51+01:00</time>
      </trkpt>
      <trkpt lat="46.82972" lon="6.30782">
        <ele>928</ele>
        <time>2021-11-21T16:10:56+01:00</time>
      </trkpt>
      <trkpt lat="46.8299" lon="6.30726">
        <ele>935</ele>
        <time>2021-11-21T16:11:01+01:00</time>
      </trkpt>
      <trkpt lat="46.82905" lon="6.30585">
        <ele>946</ele>
        <time>2021-11-21T16:11:06+01:00</time>
      </trkpt>
      <trkpt lat="46.82849" lon="6.30537">
        <ele>945</ele>
        <time>2021-11-21T16:11:11+01:00</time>
      </trkpt>
      <trkpt lat="46.82796" lon="6.30469">
        <ele>950</ele>
        <time>2021-11-21T16:11:16+01:00</time>
      </trkpt>
      <trkpt lat="46.82749" lon="6.3043">
        <ele>950</ele>
        <time>2021-11-21T16:11:21+01:00</time>
      </trkpt>
      <trkpt lat="46.82702" lon="6.30387">
        <ele>951</ele>
        <time>2021-11-21T16:11:26+01:00</time>
      </trkpt>
      <trkpt lat="46.82655" lon="6.30323">
        <ele>954</ele>
        <time>2021-11-21T16:11:31+01:00</time>
      </trkpt>
      <trkpt lat="46.82649" lon="6.30228">
        <ele>959</ele>
        <time>2021-11-21T16:11:36+01:00</time>
      </trkpt>
      <trkpt lat="46.82602" lon="6.30125">
        <ele>956</ele>
        <time>2021-11-21T16:11:41+01:00</time>
      </trkpt>
      <trkpt lat="46.82526" lon="6.3013">
        <ele>968</ele>
        <time>2021-11-21T16:11:46+01:00</time>
      </trkpt>
      <trkpt lat="46.82476" lon="6.30134">
        <ele>970</ele>
        <time>2021-11-21T16:11:51+01:00</time>
      </trkpt>
      <trkpt lat="46.82355" lon="6.3004">
        <ele>956</ele>
        <time>2021-11-21T16:11:56+01:00</time>
      </trkpt>
      <trkpt lat="46.82253" lon="6.29907">
        <ele>953</ele>
        <time>2021-11-21T16:12:01+01:00</time>
      </trkpt>
      <trkpt lat="46.82179" lon="6.29954">
        <ele>949</ele>
        <time>2021-11-21T16:12:06+01:00</time>
      </trkpt>
      <trkpt lat="46.82059" lon="6.29911">
        <ele>945</ele>
        <time>2021-11-21T16:12:11+01:00</time>
      </trkpt>
      <trkpt lat="46.81941" lon="6.29812">
        <ele>939</ele>
        <time>2021-11-21T16:12:16+01:00</time>
      </trkpt>
      <trkpt lat="46.81709" lon="6.29572">
        <ele>927</ele>
        <time>2021-11-21T16:12:21+01:00</time>
      </trkpt>
      <trkpt lat="46.81648" lon="6.29473">
        <ele>922</ele>
        <time>2021-11-21T16:12:26+01:00</time>
      </trkpt>
      <trkpt lat="46.81648" lon="6.29426">
        <ele>923</ele>
        <time>2021-11-21T16:12:31+01:00</time>
      </trkpt>
      <trkpt lat="46.81592" lon="6.29447">
        <ele>910</ele>
        <time>2021-11-21T16:12:36+01:00</time>
      </trkpt>
      <trkpt lat="46.81492" lon="6.29409">
        <ele>900</ele>
        <time>2021-11-21T16:12:41+01:00</time>
      </trkpt>
      <trkpt lat="46.81466" lon="6.29516">
        <ele>894</ele>
        <time>2021-11-21T16:12:46+01:00</time>
      </trkpt>
      <trkpt lat="46.81395" lon="6.29555">
        <ele>896</ele>
        <time>2021-11-21T16:12:51+01:00</time>
      </trkpt>
      <trkpt lat="46.81339" lon="6.29598">
        <ele>892</ele>
        <time>2021-11-21T16:12:56+01:00</time>
      </trkpt>
      <trkpt lat="46.81278" lon="6.29658">
        <ele>884</ele>
        <time>2021-11-21T16:13:01+01:00</time>
      </trkpt>
      <trkpt lat="46.8121" lon="6.29683">
        <ele>881</ele>
        <time>2021-11-21T16:13:06+01:00</time>
      </trkpt>
      <trkpt lat="46.81322" lon="6.29902">
        <ele>873</ele>
        <time>2021-11-21T16:13:11+01:00</time>
      </trkpt>
      <trkpt lat="46.8136" lon="6.30027">
        <ele>868</ele>
        <time>2021-11-21T16:13:16+01:00</time>
      </trkpt>
      <trkpt lat="46.81357" lon="6.30083">
        <ele>865</ele>
        <time>2021-11-21T16:13:21+01:00</time>
      </trkpt>
      <trkpt lat="46.81342" lon="6.30104">
        <ele>864</ele>
        <time>2021-11-21T16:13:26+01:00</time>
      </trkpt>
    </trkseg>
  </trk>
</gpx>